Time;durP1;ratioP1;P1;durP2;ratioP2;P2;SDS_P1;SDS_P2;PMS_P1;PMS_P2;Temp;Humidity;BMP_temperature;BMP_pressure;BME280_temperature;BME280_humidity;BME280_pressure;Samples;Min_cycle;Max_cycle;Signal;HPM_P1;HPM_P2
2022/07/30 00:01:21;;;;;;;8.82;4.30;;;19.90;99.90;;;17.14;100.00;100627.44;5026765;28;20059;-86
2022/07/30 00:03:49;;;;;;;8.45;4.32;;;19.80;99.90;;;17.11;100.00;100633.38;5049668;28;20041;-86
2022/07/30 00:06:17;;;;;;;10.75;4.35;;;19.80;99.90;;;17.05;100.00;100625.19;5032844;28;20033;-86
2022/07/30 00:08:44;;;;;;;8.85;4.25;;;19.80;99.90;;;17.01;100.00;100619.28;5026557;28;20075;-86
2022/07/30 00:11:11;;;;;;;14.30;4.88;;;19.70;99.90;;;16.93;100.00;100627.81;5015704;28;20041;-85
2022/07/30 00:13:39;;;;;;;7.90;4.55;;;19.70;99.90;;;16.86;100.00;100624.28;5049103;28;20105;-86
2022/07/30 00:16:06;;;;;;;7.88;4.75;;;19.70;99.90;;;16.82;100.00;100621.13;5041335;28;20041;-86
2022/07/30 00:18:33;;;;;;;10.63;5.07;;;19.70;99.90;;;16.77;100.00;100624.53;5043024;28;20514;-86
2022/07/30 00:21:02;;;;;;;8.23;4.50;;;19.60;99.90;;;16.72;100.00;100621.59;5032547;28;20400;-86
2022/07/30 00:23:31;;;;;;;9.18;4.80;;;19.60;99.90;;;16.66;100.00;100621.63;5012588;28;20047;-85
2022/07/30 00:25:58;;;;;;;11.38;4.65;;;19.60;99.90;;;16.60;100.00;100615.13;5025723;28;20123;-86
2022/07/30 00:28:25;;;;;;;7.55;4.10;;;19.50;99.90;;;16.56;100.00;100609.25;5029870;28;20065;-86
2022/07/30 00:30:52;;;;;;;9.43;5.18;;;19.50;99.90;;;16.51;100.00;100609.06;5038848;28;20029;-86
2022/07/30 00:33:20;;;;;;;13.30;5.20;;;19.50;99.90;;;16.48;100.00;100608.66;5031292;28;20071;-86
2022/07/30 00:35:47;;;;;;;7.72;4.70;;;19.40;99.90;;;16.42;100.00;100616.72;5031903;28;20077;-86
2022/07/30 00:38:15;;;;;;;9.55;5.07;;;19.40;99.90;;;16.33;100.00;100617.19;5032329;28;20041;-86
2022/07/30 00:40:43;;;;;;;11.38;4.95;;;19.40;99.90;;;16.29;100.00;100616.81;5020156;28;20041;-85
2022/07/30 00:43:15;;;;;;;8.80;4.68;;;19.30;99.90;;;16.21;100.00;100609.66;5031320;28;20430;-86
2022/07/30 00:45:43;;;;;;;8.43;4.60;;;19.30;99.90;;;16.17;100.00;100619.41;5013523;28;20465;-85
2022/07/30 00:48:11;;;;;;;11.70;4.95;;;19.20;99.90;;;16.17;100.00;100607.59;5026555;28;20510;-86
2022/07/30 00:50:38;;;;;;;9.48;4.93;;;19.20;99.90;;;16.09;100.00;100618.81;5010870;28;20054;-85
2022/07/30 00:53:07;;;;;;;9.43;4.85;;;19.20;99.90;;;16.03;100.00;100615.88;5042057;28;20037;-86
2022/07/30 00:55:36;;;;;;;8.88;5.22;;;19.20;99.90;;;15.98;100.00;100612.13;5019301;28;20132;-86
2022/07/30 00:58:04;;;;;;;11.10;5.25;;;19.10;99.90;;;15.94;100.00;100614.44;5019302;28;20060;-85
2022/07/30 01:00:32;;;;;;;9.00;4.88;;;19.10;99.90;;;15.90;100.00;100612.38;5028802;28;20120;-85
2022/07/30 01:02:59;;;;;;;7.18;4.45;;;19.00;99.90;;;15.90;100.00;100612.38;5014541;28;20137;-85
2022/07/30 01:05:26;;;;;;;12.07;4.97;;;19.00;99.90;;;15.88;100.00;100607.09;5033125;28;20042;-86
2022/07/30 01:07:53;;;;;;;8.95;5.28;;;19.00;99.90;;;15.85;100.00;100615.75;5043214;28;20047;-85
2022/07/30 01:10:20;;;;;;;9.88;5.03;;;19.00;99.90;;;15.81;100.00;100615.34;5029438;28;20091;-86
2022/07/30 01:12:51;;;;;;;11.00;5.05;;;19.00;99.90;;;15.76;100.00;100614.28;5029269;28;20057;-85
2022/07/30 01:15:19;;;;;;;9.55;4.80;;;18.90;99.90;;;15.73;100.00;100611.97;5027452;28;20163;-85
2022/07/30 01:17:49;;;;;;;9.00;4.72;;;18.90;99.90;;;15.70;100.00;100615.97;5012812;28;20130;-86
2022/07/30 01:20:22;;;;;;;8.90;5.20;;;18.90;99.90;;;15.71;100.00;100605.88;5026482;28;20063;-86
2022/07/30 01:23:00;;;;;;;7.80;4.82;;;18.80;99.90;;;15.68;100.00;100607.13;5041869;28;20044;-86
2022/07/30 01:25:54;;;;;;;9.30;5.05;;;18.80;99.90;;;15.64;100.00;100612.19;5026346;28;20085;-86
2022/07/30 01:28:27;;;;;;;9.32;5.10;;;18.80;99.90;;;15.61;100.00;100609.03;5016970;28;20050;-86
2022/07/30 01:30:56;;;;;;;8.70;5.00;;;18.80;99.90;;;15.59;100.00;100606.53;5015654;28;20053;-86
2022/07/30 01:33:26;;;;;;;11.02;5.15;;;18.70;99.90;;;15.55;100.00;100605.25;5030282;28;20417;-85
2022/07/30 01:35:55;;;;;;;10.82;5.30;;;18.70;99.90;;;15.50;100.00;100607.81;5019801;28;20463;-85
2022/07/30 01:38:27;;;;;;;10.23;5.10;;;18.70;99.90;;;15.44;100.00;100605.94;5010868;28;20041;-86
2022/07/30 01:40:57;;;;;;;8.90;5.00;;;18.60;99.90;;;15.41;100.00;100603.63;5029472;28;20048;-86
2022/07/30 01:43:25;;;;;;;12.00;5.43;;;18.60;99.90;;;15.39;100.00;100603.81;5025868;28;20046;-86
2022/07/30 01:45:55;;;;;;;8.75;5.15;;;18.60;99.90;;;15.40;100.00;100610.13;5020234;28;20033;-86
2022/07/30 01:48:25;;;;;;;9.75;4.85;;;18.60;99.90;;;15.37;100.00;100614.16;5008715;28;20037;-86
2022/07/30 01:50:58;;;;;;;8.82;4.68;;;18.60;99.90;;;15.34;100.00;100608.25;5011705;28;20498;-86
2022/07/30 01:53:29;;;;;;;9.45;5.22;;;18.60;99.90;;;15.32;100.00;100610.38;5042783;28;20071;-86
2022/07/30 01:56:01;;;;;;;10.65;5.38;;;18.50;99.90;;;15.28;100.00;100612.69;5020592;28;20551;-86
2022/07/30 01:58:35;;;;;;;9.88;4.93;;;18.50;99.90;;;15.27;100.00;100619.25;5009658;28;20470;-85
2022/07/30 02:01:16;;;;;;;8.52;4.82;;;18.50;99.90;;;15.24;100.00;100615.03;5009229;28;20518;-86
2022/07/30 02:03:44;;;;;;;7.28;5.10;;;18.60;99.90;;;15.22;100.00;100608.91;5010452;28;20041;-85
2022/07/30 02:06:17;;;;;;;8.52;4.95;;;18.40;99.90;;;15.17;100.00;100614.22;5021126;28;20055;-86
2022/07/30 02:08:54;;;;;;;10.50;5.47;;;18.40;99.90;;;15.19;100.00;100622.19;5007121;28;20426;-85
2022/07/30 02:14:14;;;;;;;9.27;5.38;;;18.40;99.90;;;15.19;100.00;100619.44;5011850;28;20091;-85
2022/07/30 02:16:45;;;;;;;8.35;4.82;;;18.40;99.90;;;15.15;100.00;100627.25;5015856;28;20064;-86
2022/07/30 02:19:18;;;;;;;10.57;5.43;;;18.40;99.90;;;15.12;100.00;100627.69;5011311;28;20049;-86
2022/07/30 02:21:52;;;;;;;9.77;5.10;;;18.30;99.90;;;15.10;100.00;100618.84;4998104;28;20045;-85
2022/07/30 02:24:25;;;;;;;9.38;5.25;;;18.30;99.90;;;15.09;100.00;100627.28;5014974;28;20056;-85
2022/07/30 02:27:02;;;;;;;11.07;5.45;;;18.30;99.90;;;15.06;100.00;100625.81;5034979;28;20041;-85
2022/07/30 02:29:35;;;;;;;12.25;5.47;;;18.30;99.90;;;15.04;100.00;100630.63;5010034;28;20057;-85
2022/07/30 02:32:06;;;;;;;9.43;5.40;;;18.30;99.90;;;15.04;100.00;100627.88;5018252;28;20057;-85
2022/07/30 02:34:38;;;;;;;11.02;5.68;;;18.20;99.90;;;15.04;100.00;100631.50;5027334;28;20052;-85
2022/07/30 02:37:08;;;;;;;10.90;5.60;;;18.20;99.90;;;15.07;100.00;100632.97;5016708;28;20053;-85
2022/07/30 02:39:39;;;;;;;10.93;5.63;;;18.20;99.90;;;15.08;100.00;100637.41;5009537;28;20069;-85
2022/07/30 02:42:09;;;;;;;11.90;6.68;;;18.20;99.90;;;15.04;100.00;100645.22;5019927;28;20052;-84
2022/07/30 02:44:41;;;;;;;8.45;5.72;;;18.20;99.90;;;15.04;100.00;100633.38;5017013;28;20119;-85
2022/07/30 02:47:11;;;;;;;13.52;7.38;;;18.20;99.90;;;15.08;100.00;100633.78;5023222;28;20124;-85
2022/07/30 02:49:44;;;;;;;14.45;7.43;;;18.20;99.90;;;15.09;100.00;100635.50;5032521;28;20056;-85
2022/07/30 02:52:14;;;;;;;13.25;7.88;;;18.20;99.90;;;15.13;100.00;100640.34;5038732;28;20158;-85
2022/07/30 02:54:43;;;;;;;12.48;8.57;;;18.20;99.90;;;15.17;100.00;100633.41;5004001;28;20103;-85
2022/07/30 02:57:13;;;;;;;15.63;8.73;;;18.20;99.90;;;15.14;100.00;100636.56;5021646;28;20052;-85
2022/07/30 02:59:43;;;;;;;12.00;8.40;;;18.20;99.90;;;15.14;100.00;100635.72;5020864;28;20045;-85
2022/07/30 03:02:13;;;;;;;13.05;7.45;;;18.20;99.90;;;15.16;100.00;100636.34;5023036;28;20047;-85
2022/07/30 03:04:41;;;;;;;13.85;7.75;;;18.20;99.90;;;15.11;100.00;100631.47;5025266;28;20040;-85
2022/07/30 03:07:11;;;;;;;13.95;8.00;;;18.20;99.90;;;15.11;100.00;100639.69;5020078;28;20138;-86
2022/07/30 03:09:41;;;;;;;11.00;8.05;;;18.20;99.90;;;15.10;100.00;100640.78;5028647;28;20045;-85
2022/07/30 03:12:12;;;;;;;15.57;8.57;;;18.20;99.90;;;15.10;100.00;100635.28;5024836;28;20060;-85
2022/07/30 03:14:40;;;;;;;11.75;8.18;;;18.10;99.90;;;15.11;100.00;100636.13;5024351;28;20091;-85
2022/07/30 03:17:10;;;;;;;12.50;8.05;;;18.10;99.90;;;15.09;100.00;100639.06;5019021;28;20049;-85
2022/07/30 03:19:40;;;;;;;13.70;7.63;;;18.20;99.90;;;15.09;100.00;100635.50;5031286;28;20072;-85
2022/07/30 03:22:09;;;;;;;12.77;8.35;;;18.10;99.90;;;15.07;100.00;100646.66;5028695;28;20046;-85
2022/07/30 03:24:39;;;;;;;11.43;7.43;;;18.10;99.90;;;15.06;100.00;100647.75;5025425;28;20055;-85
2022/07/30 03:27:08;;;;;;;20.90;8.35;;;18.10;99.90;;;15.04;100.00;100649.81;5012985;28;20415;-85
2022/07/30 03:29:38;;;;;;;12.30;8.25;;;18.10;99.90;;;15.00;100.00;100646.69;5015736;28;20037;-85
2022/07/30 03:32:07;;;;;;;14.55;8.68;;;18.10;99.90;;;14.98;100.00;100648.78;5040850;28;20610;-85
2022/07/30 03:34:35;;;;;;;14.43;7.47;;;18.10;99.90;;;14.96;100.00;100653.63;5015441;28;20068;-85
2022/07/30 03:37:05;;;;;;;14.32;8.10;;;18.00;99.90;;;14.90;100.00;100659.09;5040550;28;20052;-85
2022/07/30 03:39:36;;;;;;;15.00;8.25;;;18.00;99.90;;;14.86;100.00;100661.41;5011139;28;20421;-85
2022/07/30 03:42:06;;;;;;;15.52;8.65;;;18.00;99.90;;;14.84;100.00;100658.03;5010126;28;20049;-85
2022/07/30 03:44:34;;;;;;;11.63;8.32;;;18.00;99.90;;;14.81;100.00;100653.84;5010044;28;20422;-85
2022/07/30 03:47:06;;;;;;;14.55;8.63;;;18.00;99.90;;;14.79;100.00;100653.22;5019212;28;20412;-85
2022/07/30 03:49:40;;;;;;;15.75;8.90;;;18.00;99.90;;;14.80;100.00;100654.88;5010383;28;20091;-85
2022/07/30 03:52:08;;;;;;;12.45;8.70;;;18.00;99.90;;;14.79;100.00;100653.22;5023597;28;20100;-85
2022/07/30 03:54:36;;;;;;;12.55;9.45;;;18.00;99.90;;;14.80;100.00;100649.41;5015105;28;20037;-85
2022/07/30 03:57:22;;;;;;;15.18;9.20;;;17.90;99.90;;;14.78;100.00;100650.66;5041002;28;20127;-85
2022/07/30 03:59:51;;;;;;;15.32;9.55;;;17.90;99.90;;;14.76;100.00;100652.78;5009492;28;20418;-85
2022/07/30 04:02:21;;;;;;;15.68;10.10;;;17.90;99.90;;;14.76;100.00;100653.63;5003292;28;20049;-85
2022/07/30 04:04:54;;;;;;;18.05;9.93;;;17.90;99.90;;;14.77;100.00;100659.94;5029307;28;20052;-85
2022/07/30 04:07:21;;;;;;;15.88;10.82;;;17.90;99.90;;;14.77;100.00;100668.97;5018121;28;20083;-85
2022/07/30 04:09:48;;;;;;;16.33;10.63;;;17.90;99.90;;;14.84;100.00;100661.63;5007241;28;20053;-85
2022/07/30 04:12:35;;;;;;;16.73;9.90;;;17.90;99.90;;;14.89;100.00;100676.59;5017968;28;20599;-85
2022/07/30 04:15:02;;;;;;;15.60;9.50;;;17.90;99.90;;;14.90;100.00;100670.06;5021711;28;20095;-85
2022/07/30 04:17:38;;;;;;;16.23;10.00;;;17.90;99.90;;;14.89;100.00;100677.47;5017561;28;20071;-86
2022/07/30 04:20:12;;;;;;;15.48;9.85;;;17.90;99.90;;;14.92;100.00;100676.19;5020533;28;20034;-85
2022/07/30 04:22:40;;;;;;;12.70;9.55;;;17.90;99.90;;;14.92;100.00;100681.66;5018796;28;20061;-86
2022/07/30 04:25:10;;;;;;;13.50;9.98;;;17.90;99.90;;;14.95;100.00;100675.78;5021297;28;20041;-85
2022/07/30 04:27:39;;;;;;;14.57;10.00;;;17.90;99.90;;;14.97;100.00;100674.50;5026755;28;20076;-85
2022/07/30 04:30:07;;;;;;;14.45;9.43;;;17.90;99.90;;;14.98;100.00;100676.19;5025029;28;20042;-85
2022/07/30 04:32:41;;;;;;;15.70;10.32;;;17.90;99.90;;;15.07;100.00;100681.47;5013413;28;20052;-85
2022/07/30 04:35:09;;;;;;;15.23;10.82;;;17.90;99.90;;;15.17;100.00;100695.59;5026975;28;20050;-85
2022/07/30 04:37:54;;;;;;;17.13;10.95;;;17.90;99.90;;;15.28;100.00;100692.22;5030898;28;20452;-85
2022/07/30 04:40:22;;;;;;;21.90;12.70;;;18.00;99.90;;;15.42;100.00;100688.44;5016433;28;20044;-85
2022/07/30 04:42:49;;;;;;;23.58;14.50;;;18.00;99.90;;;15.54;100.00;100693.25;5020259;28;20042;-85
2022/07/30 04:45:18;;;;;;;19.60;13.13;;;18.00;99.90;;;15.54;100.00;100690.53;5021511;28;20045;-85
2022/07/30 04:47:53;;;;;;;17.48;11.82;;;18.10;99.90;;;15.60;100.00;100695.97;5025258;28;20103;-85
2022/07/30 04:50:51;;;;;;;18.67;12.05;;;18.10;99.90;;;15.67;100.00;100700.63;5023260;28;20088;-85
2022/07/30 04:53:20;;;;;;;16.13;11.73;;;18.10;99.90;;;15.74;100.00;100706.97;5005260;28;20065;-85
2022/07/30 04:55:54;;;;;;;19.45;12.20;;;18.20;99.90;;;15.90;100.00;100701.03;5038129;28;20048;-85
2022/07/30 04:58:25;;;;;;;21.05;13.52;;;18.20;99.90;;;16.05;100.00;100698.03;5024217;28;20045;-86
2022/07/30 05:00:55;;;;;;;18.88;13.25;;;18.30;99.90;;;16.20;100.00;100711.47;5034597;28;20041;-85
2022/07/30 05:03:30;;;;;;;23.08;15.23;;;18.30;99.90;;;16.33;100.00;100711.41;5022430;28;20041;-84
2022/07/30 05:05:58;;;;;;;28.58;16.92;;;18.40;99.90;;;16.47;100.00;100700.38;5019784;28;20051;-85
2022/07/30 05:08:30;;;;;;;26.17;18.08;;;18.50;99.90;;;16.60;100.00;100709.41;5011217;28;20038;-86
2022/07/30 05:10:59;;;;;;;30.60;17.63;;;18.50;99.90;;;16.69;100.00;100709.16;5021845;28;20469;-85
2022/07/30 05:13:26;;;;;;;25.17;16.73;;;18.60;99.90;;;16.80;100.00;100714.78;5015118;28;20063;-85
2022/07/30 05:15:53;;;;;;;29.10;18.45;;;18.60;99.90;;;16.88;100.00;100712.88;5025038;28;20126;-85
2022/07/30 05:18:21;;;;;;;26.92;16.70;;;18.70;99.90;;;16.99;100.00;100721.25;5023560;28;20054;-86
2022/07/30 05:20:50;;;;;;;26.67;16.35;;;18.80;99.90;;;17.03;100.00;100724.41;5026267;28;20086;-85
2022/07/30 05:23:22;;;;;;;28.98;16.95;;;18.80;99.90;;;17.07;100.00;100722.88;5007201;28;20064;-86
2022/07/30 05:26:08;;;;;;;30.95;16.50;;;18.80;99.90;;;17.28;100.00;100724.41;5029822;28;20064;-85
2022/07/30 05:28:40;;;;;;;27.92;16.95;;;18.90;99.90;;;17.34;100.00;100722.66;5012074;28;20045;-85
2022/07/30 05:31:11;;;;;;;32.50;18.08;;;19.00;99.90;;;17.51;100.00;100728.47;5013123;28;20529;-85
2022/07/30 05:33:38;;;;;;;39.30;19.40;;;19.00;99.90;;;17.72;100.00;100732.72;5007587;28;20493;-85
2022/07/30 05:36:08;;;;;;;44.42;22.60;;;19.00;99.90;;;17.78;100.00;100737.31;5045979;28;20053;-85
2022/07/30 05:38:38;;;;;;;44.92;22.60;;;19.10;99.90;;;17.85;100.00;100735.34;5011180;28;20508;-84
2022/07/30 05:41:27;;;;;;;45.90;22.73;;;19.10;99.90;;;17.90;100.00;100735.53;5013136;28;20451;-85
2022/07/30 05:44:15;;;;;;;42.25;22.10;;;19.20;99.90;;;17.89;100.00;100742.09;5018529;28;20091;-85
2022/07/30 05:46:42;;;;;;;49.50;23.75;;;19.20;99.90;;;18.03;100.00;100751.06;5015882;28;20567;-85
2022/07/30 05:49:09;;;;;;;45.45;22.45;;;19.30;99.90;;;18.12;100.00;100746.09;5028604;28;20045;-87
2022/07/30 05:51:39;;;;;;;51.28;23.23;;;19.40;99.90;;;18.26;100.00;100739.38;5027746;28;20149;-87
2022/07/30 05:54:06;;;;;;;47.35;24.33;;;19.40;99.90;;;18.39;100.00;100743.03;5028678;28;20045;-86
2022/07/30 05:56:42;;;;;;;45.25;24.40;;;19.50;99.90;;;18.55;100.00;100746.00;5027664;28;20045;-85
2022/07/30 05:59:20;;;;;;;48.83;25.42;;;19.60;99.90;;;18.61;100.00;100746.16;5025136;28;20064;-94
2022/07/30 06:02:16;;;;;;;52.63;26.23;;;19.70;99.90;;;18.67;100.00;100742.47;5021142;28;20417;-87
2022/07/30 06:05:06;;;;;;;53.88;27.63;;;19.80;99.90;;;18.60;100.00;100741.69;5020530;28;20050;-86
2022/07/30 06:07:35;;;;;;;60.08;27.45;;;19.80;99.90;;;18.79;100.00;100742.50;5030559;28;20045;-86
2022/07/30 06:10:05;;;;;;;56.55;27.88;;;19.90;99.90;;;18.93;100.00;100752.31;5014527;28;20061;-87
2022/07/30 06:12:32;;;;;;;50.30;27.73;;;20.00;99.90;;;18.79;100.00;100751.63;5010136;28;20148;-86
2022/07/30 06:15:00;;;;;;;54.58;28.75;;;20.00;99.90;;;18.78;100.00;100755.47;5021400;28;20041;-86
2022/07/30 06:17:40;;;;;;;60.47;30.63;;;20.00;99.90;;;18.76;100.00;100761.19;5027173;28;20049;-85
2022/07/30 06:20:17;;;;;;;55.42;29.08;;;20.00;99.90;;;19.16;100.00;100767.25;5028953;28;20131;-86
2022/07/30 06:22:55;;;;;;;54.33;28.88;;;20.10;99.90;;;19.15;100.00;100760.88;5026618;28;20472;-88
2022/07/30 06:25:31;;;;;;;51.60;29.10;;;20.10;99.90;;;18.88;100.00;100760.44;5014232;28;20041;-89
2022/07/30 06:27:59;;;;;;;60.58;30.35;;;20.10;99.90;;;18.77;100.00;100767.53;5007887;28;20141;-86
2022/07/30 06:30:28;;;;;;;57.53;29.58;;;20.10;99.90;;;19.14;100.00;100770.25;5023214;28;20041;-86
2022/07/30 06:32:55;;;;;;;51.85;27.83;;;20.20;99.90;;;19.04;100.00;100776.34;5011425;28;20090;-86
2022/07/30 06:35:23;;;;;;;48.00;27.55;;;20.20;99.90;;;18.81;100.00;100779.84;5021632;28;20056;-87
2022/07/30 06:37:50;;;;;;;53.92;27.95;;;20.20;99.90;;;18.68;100.00;100780.00;5018833;28;20083;-88
2022/07/30 06:40:20;;;;;;;50.42;27.73;;;20.20;99.90;;;18.60;100.00;100775.63;4993710;28;20160;-87
2022/07/30 06:43:01;;;;;;;59.17;29.70;;;20.20;99.90;;;18.57;100.00;100784.34;5008842;28;20099;-90
2022/07/30 06:45:43;;;;;;;52.05;30.63;;;20.20;99.90;;;18.55;100.00;100779.06;5006890;28;20109;-89
2022/07/30 06:48:37;;;;;;;55.88;32.38;;;20.20;99.90;;;18.46;100.00;100785.13;5025540;28;20092;-89
2022/07/30 06:51:06;;;;;;;55.80;30.73;;;20.20;99.90;;;18.41;100.00;100787.72;5011494;28;20046;-89
2022/07/30 06:53:34;;;;;;;54.78;32.90;;;20.20;99.90;;;18.27;100.00;100793.38;5021688;28;20115;-89
2022/07/30 06:56:15;;;;;;;70.15;36.45;;;20.20;99.90;;;18.28;100.00;100789.56;5038319;28;20109;-89
2022/07/30 06:59:08;;;;;;;75.38;40.67;;;20.10;99.90;;;18.31;100.00;100793.78;5022074;28;20065;-89
2022/07/30 07:02:08;;;;;;;85.75;46.97;;;20.10;99.90;;;18.35;100.00;100790.34;5008454;28;20047;-89
2022/07/30 07:04:49;;;;;;;92.50;48.67;;;20.10;99.90;;;18.35;100.00;100790.34;5028585;28;20049;-89
2022/07/30 07:07:17;;;;;;;107.38;51.83;;;20.10;99.90;;;18.31;100.00;100794.59;5011188;28;20045;-89
2022/07/30 07:09:44;;;;;;;114.10;56.47;;;20.10;99.90;;;18.28;100.00;100797.84;5046291;28;20118;-89
2022/07/30 07:12:31;;;;;;;132.00;60.60;;;20.10;99.90;;;18.22;100.00;100807.03;5024107;28;20049;-90
2022/07/30 07:14:59;;;;;;;139.05;62.42;;;20.00;99.90;;;18.20;100.00;100805.56;5021873;28;20057;-89
2022/07/30 07:17:27;;;;;;;140.15;62.22;;;20.00;99.90;;;18.09;100.00;100807.16;5026122;28;20038;-88
2022/07/30 07:19:57;;;;;;;129.23;59.83;;;20.00;99.90;;;18.16;100.00;100803.28;5028360;28;20056;-90
2022/07/30 07:22:25;;;;;;;132.30;60.67;;;20.00;99.90;;;18.13;100.00;100813.91;5032503;28;20053;-90
2022/07/30 07:24:53;;;;;;;120.03;58.50;;;20.00;99.90;;;18.10;100.00;100820.69;5029433;28;20406;-90
2022/07/30 07:27:30;;;;;;;111.13;55.85;;;20.00;99.90;;;18.11;100.00;100819.63;5028874;28;20041;-89
2022/07/30 07:30:00;;;;;;;113.93;57.22;;;20.00;99.90;;;18.19;100.00;100812.97;5025931;28;20078;-89
2022/07/30 07:32:28;;;;;;;120.40;59.60;;;20.00;99.90;;;18.17;100.00;100821.47;5017235;28;20123;-89
2022/07/30 07:34:55;;;;;;;111.55;56.08;;;20.00;99.90;;;18.12;100.00;100820.47;5017762;28;20575;-89
2022/07/30 07:37:22;;;;;;;118.13;57.78;;;20.00;99.90;;;18.12;100.00;100820.47;5034460;28;20099;-89
2022/07/30 07:39:49;;;;;;;106.93;52.92;;;20.00;99.90;;;18.01;100.00;100811.06;5015055;28;20569;-90
2022/07/30 07:42:17;;;;;;;108.50;54.30;;;20.00;99.90;;;18.06;100.00;100818.63;5033574;28;20041;-89
2022/07/30 07:44:46;;;;;;;102.22;52.63;;;19.90;99.90;;;18.26;100.00;100813.75;5027775;28;20470;-89
2022/07/30 07:47:14;;;;;;;95.70;49.30;;;20.00;99.90;;;18.53;100.00;100814.28;5014395;28;20513;-89
2022/07/30 07:49:47;;;;;;;92.38;48.22;;;20.00;99.90;;;18.83;100.00;100816.31;5013050;28;20522;-89
2022/07/30 07:52:14;;;;;;;81.90;45.38;;;20.00;99.90;;;18.88;100.00;100810.91;5038227;28;20044;-89
2022/07/30 07:54:43;;;;;;;76.20;43.42;;;20.10;99.90;;;19.22;100.00;100815.97;5021400;28;20501;-89
2022/07/30 07:57:10;;;;;;;65.97;40.67;;;20.10;99.90;;;19.41;99.45;100819.53;5030602;28;20053;-86
2022/07/30 07:59:41;;;;;;;70.82;39.47;;;20.20;99.90;;;19.57;99.34;100818.00;5009736;28;20091;-83
2022/07/30 08:02:36;;;;;;;64.53;40.33;;;20.20;99.90;;;19.78;96.72;100809.19;5043747;28;20045;-89
2022/07/30 08:05:09;;;;;;;66.55;39.28;;;20.30;99.90;;;19.91;98.54;100813.63;5014951;28;20103;-89
2022/07/30 08:07:48;;;;;;;55.15;35.67;;;20.40;99.90;;;20.05;96.24;100808.72;5015064;28;20048;-90
2022/07/30 08:10:33;;;;;;;60.28;37.53;;;20.50;99.90;;;20.08;95.46;100803.53;5030502;28;20406;-87
2022/07/30 08:13:19;;;;;;;56.10;36.95;;;20.60;99.90;;;20.14;95.33;100807.25;5033434;28;20052;-89
2022/07/30 08:16:07;;;;;;;55.53;36.35;;;20.70;99.90;;;20.08;94.24;100808.22;5033135;28;20056;-88
2022/07/30 08:18:54;;;;;;;48.75;32.45;;;20.70;99.90;;;20.13;94.16;100811.13;5024038;28;20410;-90
2022/07/30 08:21:28;;;;;;;49.28;32.85;;;20.70;99.90;;;20.24;92.81;100818.56;5034131;28;20044;-90
2022/07/30 08:23:57;;;;;;;49.90;32.40;;;20.80;99.90;;;20.31;93.94;100812.88;5026680;28;20060;-89
2022/07/30 08:26:25;;;;;;;50.38;33.95;;;20.80;99.90;;;20.45;93.51;100813.50;5012471;28;20349;-90
2022/07/30 08:28:52;;;;;;;53.67;36.10;;;20.90;99.90;;;20.55;91.59;100810.09;5026685;28;20379;-89
2022/07/30 08:31:19;;;;;;;53.75;36.65;;;21.00;99.90;;;20.48;92.66;100807.47;5029854;28;20047;-90
2022/07/30 08:33:46;;;;;;;53.33;36.85;;;21.10;99.90;;;20.59;92.71;100809.38;5025042;28;20136;-89
2022/07/30 08:36:16;;;;;;;53.38;34.95;;;21.00;99.90;;;20.70;91.36;100808.53;5033809;28;20049;-88
2022/07/30 08:38:43;;;;;;;51.50;33.85;;;21.20;99.90;;;20.76;92.01;100798.41;5017058;28;20064;-90
2022/07/30 08:41:11;;;;;;;45.67;31.58;;;21.20;99.90;;;20.84;91.55;100811.00;5027196;28;20057;-90
2022/07/30 08:43:40;;;;;;;45.17;30.42;;;21.20;99.90;;;20.87;90.29;100802.22;5028307;28;20559;-89
2022/07/30 08:46:12;;;;;;;44.70;30.40;;;21.30;99.90;;;20.95;91.64;100803.75;5032768;28;20041;-82
2022/07/30 08:48:47;;;;;;;41.88;28.75;;;21.30;99.90;;;21.07;92.60;100804.53;4993811;28;20066;-81
2022/07/30 08:51:18;;;;;;;38.28;26.90;;;21.40;99.90;;;21.13;88.90;100808.25;5020860;28;20053;-82
2022/07/30 08:54:06;;;;;;;35.67;25.58;;;21.50;99.90;;;21.13;88.59;100813.78;5034536;28;20517;-85
2022/07/30 08:56:34;;;;;;;31.95;22.95;;;21.50;99.90;;;21.17;88.81;100817.72;5038992;28;20441;-88
2022/07/30 08:59:02;;;;;;;31.35;22.05;;;21.60;99.90;;;21.24;89.08;100810.94;5016602;28;20041;-94
2022/07/30 09:01:29;;;;;;;27.90;21.33;;;21.60;99.90;;;21.29;88.98;100824.06;5013607;28;20041;-88
2022/07/30 09:03:57;;;;;;;26.40;19.23;;;21.70;99.90;;;21.26;86.65;100817.06;5037127;28;20041;-87
2022/07/30 09:06:28;;;;;;;26.48;19.73;;;21.70;99.70;;;21.32;87.94;100817.19;5026822;28;20045;-87
2022/07/30 09:08:56;;;;;;;29.33;18.70;;;21.70;99.90;;;21.36;88.58;100816.44;5016927;28;20056;-90
2022/07/30 09:11:23;;;;;;;25.60;18.45;;;21.80;99.90;;;21.39;88.55;100817.88;5029847;28;20041;-92
2022/07/30 09:13:51;;;;;;;24.83;18.27;;;21.80;99.90;;;21.21;84.04;100817.00;5020377;28;20056;-92
2022/07/30 09:16:21;;;;;;;21.83;15.93;;;21.80;98.40;;;21.28;87.43;100817.69;5021182;28;20493;-92
2022/07/30 09:18:49;;;;;;;22.80;15.05;;;21.80;99.90;;;21.46;88.21;100813.88;5011796;28;20092;-90
2022/07/30 09:21:21;;;;;;;19.67;12.77;;;21.90;99.90;;;21.54;87.34;100809.88;5016858;28;20131;-87
2022/07/30 09:23:59;;;;;;;17.10;11.13;;;22.00;99.50;;;21.60;84.88;100819.09;5029725;28;20051;-91
2022/07/30 09:26:57;;;;;;;17.73;10.82;;;22.00;98.40;;;21.61;83.26;100806.91;5030801;28;20060;-90
2022/07/30 09:29:43;;;;;;;15.60;10.45;;;22.10;97.90;;;21.66;85.40;100810.63;5029656;28;20049;-91
2022/07/30 09:32:48;;;;;;;15.70;10.05;;;22.10;99.20;;;21.72;85.02;100811.53;5027726;28;20048;-91
2022/07/30 09:35:39;;;;;;;14.88;8.55;;;22.10;98.80;;;21.77;84.55;100814.41;5002428;28;20081;-92
2022/07/30 09:38:10;;;;;;;15.90;8.63;;;22.20;98.10;;;21.91;84.41;100814.91;5030357;28;20061;-92
2022/07/30 09:40:56;;;;;;;15.13;10.30;;;22.30;98.10;;;21.93;81.79;100804.38;5038326;28;20045;-92
2022/07/30 09:43:48;;;;;;;13.70;8.50;;;22.30;96.30;;;21.84;81.34;100804.00;5028252;28;20053;-92
2022/07/30 09:46:45;;;;;;;16.80;8.60;;;22.30;96.50;;;21.92;82.30;100810.22;5040267;28;20060;-90
2022/07/30 09:49:17;;;;;;;12.15;7.55;;;22.40;96.90;;;21.69;83.21;100806.53;5020424;28;20049;-92
2022/07/30 09:51:45;;;;;;;14.73;7.60;;;22.40;96.50;;;21.71;83.80;100803.50;5025986;28;20046;-91
2022/07/30 09:54:12;;;;;;;14.13;8.68;;;22.30;97.40;;;21.83;83.18;100796.75;5036394;28;20049;-93
2022/07/30 09:56:42;;;;;;;15.20;8.55;;;22.40;97.30;;;21.98;84.68;100800.88;5009399;28;20045;-92
2022/07/30 09:59:27;;;;;;;17.60;8.60;;;22.50;98.20;;;22.14;82.34;100800.03;5013518;28;20053;-89
2022/07/30 10:01:56;;;;;;;13.13;6.88;;;22.60;97.50;;;22.20;82.23;100812.00;5025218;28;20077;-83
2022/07/30 10:04:50;;;;;;;13.07;6.28;;;22.60;96.90;;;22.14;81.56;100802.81;5034371;28;20056;-79
2022/07/30 10:07:20;;;;;;;13.30;7.63;;;22.60;96.20;;;22.05;76.57;100818.19;5018284;28;20061;-78
2022/07/30 10:09:49;;;;;;;12.88;7.30;;;22.60;92.20;;;22.02;78.66;100815.91;5024648;28;20038;-81
2022/07/30 10:12:23;;;;;;;15.25;7.90;;;22.60;94.40;;;21.86;79.73;100815.66;5011969;28;20029;-81
2022/07/30 10:14:54;;;;;;;12.30;6.50;;;22.60;94.50;;;21.73;79.37;100806.84;5041892;28;20398;-80
2022/07/30 10:17:22;;;;;;;12.38;7.57;;;22.50;94.10;;;21.81;78.69;100815.56;5019137;28;20056;-80
2022/07/30 10:20:16;;;;;;;12.82;6.85;;;22.50;93.40;;;21.84;77.33;100809.53;5012578;28;20044;-80
2022/07/30 10:23:02;;;;;;;10.85;5.82;;;22.50;93.20;;;22.04;82.00;100808.16;5021506;28;20161;-80